Time;durP1;ratioP1;P1;durP2;ratioP2;P2;SDS_P1;SDS_P2;PMS_P1;PMS_P2;Temp;Humidity;BMP_temperature;BMP_pressure;BME280_temperature;BME280_humidity;BME280_pressure;Samples;Min_cycle;Max_cycle;Signal;HPM_P1;HPM_P2
2023/07/04 00:00:13;;;;;;;11.32;2.80;;;;;;;16.37;100.00;101114.59;5048687;28;20062;-59
2023/07/04 00:02:39;;;;;;;12.35;2.80;;;;;;;16.12;100.00;101129.22;5048091;28;20078;-60
2023/07/04 00:05:05;;;;;;;6.35;1.73;;;;;;;15.61;100.00;101120.25;5047489;28;20025;-59
2023/07/04 00:07:31;;;;;;;6.40;1.67;;;;;;;15.27;100.00;101128.09;5048806;28;20492;-54
2023/07/04 00:09:59;;;;;;;9.77;1.90;;;;;;;14.91;100.00;101126.31;5055899;28;20036;-60
2023/07/04 00:12:24;;;;;;;5.82;1.83;;;;;;;14.90;100.00;101136.06;5068675;28;20024;-62
2023/07/04 00:14:50;;;;;;;6.90;1.83;;;;;;;14.79;100.00;101127.75;5068327;28;20028;-58
2023/07/04 00:17:15;;;;;;;8.90;2.13;;;;;;;14.87;100.00;101141.50;5065968;28;20028;-59
2023/07/04 00:19:40;;;;;;;9.45;1.80;;;;;;;14.93;100.00;101150.13;5047557;28;20025;-59
2023/07/04 00:22:10;;;;;;;6.05;1.88;;;;;;;14.99;100.00;101142.72;5047682;28;20040;-60
2023/07/04 00:24:35;;;;;;;5.20;1.73;;;;;;;15.19;100.00;101145.34;5048417;28;20025;-60
2023/07/04 00:27:02;;;;;;;8.13;2.05;;;;;;;15.05;100.00;101130.09;5047940;28;20033;-58
2023/07/04 00:29:28;;;;;;;7.68;1.50;;;;;;;15.15;100.00;101129.56;5047743;28;20163;-59
2023/07/04 00:31:53;;;;;;;9.13;1.90;;;;;;;15.21;100.00;101132.84;5047904;28;20096;-60
2023/07/04 00:34:20;;;;;;;8.65;2.38;;;;;;;15.14;100.00;101132.31;5046831;28;20514;-60
2023/07/04 00:36:46;;;;;;;10.55;1.77;;;;;;;15.03;100.00;101131.00;5048623;28;20029;-57
2023/07/04 00:39:11;;;;;;;12.68;2.03;;;;;;;15.13;100.00;101128.78;5047678;28;20370;-60
2023/07/04 00:41:37;;;;;;;6.93;1.70;;;;;;;15.10;100.00;101134.25;5047292;28;20485;-57
2023/07/04 00:44:19;;;;;;;5.38;1.50;;;;;;;15.11;100.00;101133.31;5047692;28;20059;-60
2023/07/04 00:46:52;;;;;;;7.55;1.48;;;;;;;15.07;100.00;101125.56;5047498;28;20021;-59
2023/07/04 00:49:42;;;;;;;9.23;1.90;;;;;;;15.15;100.00;101113.63;5047459;28;20025;-60
2023/07/04 00:52:14;;;;;;;5.97;1.45;;;;;;;15.17;100.00;101121.53;5047733;28;20029;-59
2023/07/04 00:55:01;;;;;;;4.00;1.38;;;;;;;15.18;100.00;101135.66;5029553;28;20427;-60
2023/07/04 00:57:32;;;;;;;3.97;1.35;;;;;;;15.22;100.00;101119.50;5047685;28;20475;-58
2023/07/04 01:00:00;;;;;;;9.35;1.85;;;;;;;15.31;100.00;101128.81;5047584;28;20021;-59
2023/07/04 01:02:29;;;;;;;10.05;1.90;;;;;;;15.25;100.00;101131.78;5047205;28;20101;-58
2023/07/04 01:04:56;;;;;;;6.85;1.85;;;;;;;15.20;100.00;101115.22;5028884;28;20048;-59
2023/07/04 01:07:32;;;;;;;11.30;2.95;;;;;;;15.29;100.00;101106.78;5029433;28;20457;-59
2023/07/04 01:10:10;;;;;;;9.70;2.38;;;;;;;15.37;100.00;101112.59;5047104;28;20358;-59
2023/07/04 01:12:36;;;;;;;8.65;2.03;;;;;;;15.37;100.00;101111.72;5047435;28;20083;-59
2023/07/04 01:15:01;;;;;;;7.20;1.85;;;;;;;15.33;100.00;101116.34;5029069;28;20021;-60
2023/07/04 01:17:26;;;;;;;9.00;2.15;;;;;;;15.28;100.00;101118.34;5047290;28;20040;-60
2023/07/04 01:19:52;;;;;;;5.93;1.58;;;;;;;15.21;100.00;101112.50;5045069;28;20108;-60
2023/07/04 01:22:33;;;;;;;5.38;1.85;;;;;;;15.18;100.00;101112.66;5029721;28;20036;-60
2023/07/04 01:25:09;;;;;;;11.65;2.25;;;;;;;15.16;100.00;101109.19;5027137;28;20132;-61
2023/07/04 01:27:38;;;;;;;11.73;2.15;;;;;;;15.21;100.00;101112.50;5041744;28;20054;-60
2023/07/04 01:30:06;;;;;;;9.87;2.27;;;;;;;15.18;100.00;101114.44;5027498;28;20036;-60
2023/07/04 01:32:32;;;;;;;10.27;2.38;;;;;;;15.05;100.00;101109.72;5009594;28;20057;-60
2023/07/04 01:35:00;;;;;;;9.85;1.90;;;;;;;15.02;100.00;101110.72;5013071;28;20056;-60
2023/07/04 01:37:29;;;;;;;14.63;1.92;;;;;;;14.96;100.00;101107.53;5047408;28;20163;-60
2023/07/04 01:39:55;;;;;;;;;;;;;;;15.03;100.00;101109.78;5046960;28;20103;-61
2023/07/04 01:42:20;;;;;;;13.18;2.45;;;;;;;15.03;100.00;101116.91;5047783;28;20007;-62
2023/07/04 01:44:46;;;;;;;9.90;1.80;;;;;;;14.96;100.00;101118.97;5047194;28;20025;-56
2023/07/04 01:47:11;;;;;;;10.65;2.22;;;;;;;14.97;100.00;101112.75;5046226;28;20048;-59
2023/07/04 01:49:36;;;;;;;9.60;2.13;;;;;;;14.87;100.00;101109.66;5046435;28;20053;-60
2023/07/04 01:52:02;;;;;;;13.45;2.45;;;;;;;14.91;100.00;101110.41;5046515;28;20036;-59
2023/07/04 01:54:27;;;;;;;12.60;2.42;;;;;;;14.84;100.00;101103.66;5046665;28;20475;-61
2023/07/04 01:56:53;;;;;;;9.75;2.17;;;;;;;14.80;100.00;101110.91;5046327;28;20052;-60
2023/07/04 01:59:20;;;;;;;9.88;2.20;;;;;;;14.72;100.00;101110.38;5046458;28;20833;-60
2023/07/04 02:01:45;;;;;;;12.43;2.70;;;;;;;14.70;100.00;101114.88;5048540;28;20021;-60
2023/07/04 02:04:11;;;;;;;12.73;2.20;;;;;;;14.77;100.00;101118.97;5049473;28;20406;-59
2023/07/04 02:06:36;;;;;;;12.50;2.72;;;;;;;14.77;100.00;101119.84;5050904;28;20457;-60
2023/07/04 02:09:02;;;;;;;7.93;2.00;;;;;;;14.78;100.00;101103.00;5050676;28;20101;-60
2023/07/04 02:11:27;;;;;;;10.82;2.00;;;;;;;14.82;100.00;101114.34;5047733;28;20036;-59
2023/07/04 02:13:53;;;;;;;12.82;2.53;;;;;;;14.88;100.00;101111.41;5050461;28;20033;-60
2023/07/04 02:16:18;;;;;;;13.65;2.30;;;;;;;14.94;100.00;101107.59;5049758;28;20718;-60
2023/07/04 02:18:43;;;;;;;13.25;2.15;;;;;;;14.95;100.00;101111.09;5049483;28;20029;-60
2023/07/04 02:21:09;;;;;;;8.70;1.80;;;;;;;14.97;100.00;101107.44;5050080;28;20070;-61
2023/07/04 02:23:34;;;;;;;8.70;1.73;;;;;;;14.95;100.00;101111.97;5049774;28;20032;-60
2023/07/04 02:26:00;;;;;;;4.30;1.70;;;;;;;14.98;100.00;101110.94;5050273;28;20045;-61
2023/07/04 02:28:25;;;;;;;9.48;1.83;;;;;;;14.97;100.00;101109.22;5049858;28;20448;-60
2023/07/04 02:30:55;;;;;;;7.28;2.00;;;;;;;15.04;100.00;101115.97;5049655;28;20071;-61
2023/07/04 02:33:21;;;;;;;7.60;2.15;;;;;;;15.15;100.00;101118.09;5049188;28;20025;-61
2023/07/04 02:35:47;;;;;;;9.85;1.90;;;;;;;15.21;100.00;101115.16;5049956;28;20021;-59
2023/07/04 02:38:13;;;;;;;5.05;1.45;;;;;;;15.23;100.00;101120.38;5050420;28;20029;-59
2023/07/04 02:40:46;;;;;;;5.38;1.60;;;;;;;15.22;100.00;101119.50;5049862;28;20048;-60
2023/07/04 02:43:11;;;;;;;6.93;1.45;;;;;;;15.19;100.00;101114.34;5050482;28;20078;-59
2023/07/04 02:45:38;;;;;;;7.05;1.63;;;;;;;15.13;100.00;101122.63;5049922;28;20058;-59
2023/07/04 02:48:03;;;;;;;5.93;1.70;;;;;;;14.98;100.00;101117.13;5048539;28;20048;-60
2023/07/04 02:50:29;;;;;;;9.07;1.77;;;;;;;14.88;100.00;101122.03;5064863;28;20521;-61
2023/07/04 02:52:54;;;;;;;6.38;1.90;;;;;;;14.83;100.00;101129.31;5049007;28;20097;-60
2023/07/04 02:55:20;;;;;;;8.55;1.92;;;;;;;14.80;100.00;101121.50;5049949;28;20032;-60
2023/07/04 02:57:45;;;;;;;8.80;1.60;;;;;;;14.81;100.00;101125.88;5049981;28;20060;-61
2023/07/04 03:00:11;;;;;;;9.25;1.70;;;;;;;14.75;100.00;101123.50;5048010;28;20469;-60
2023/07/04 03:02:36;;;;;;;3.05;1.38;;;;;;;14.73;100.00;101120.06;5064273;28;20139;-61
2023/07/04 03:05:02;;;;;;;9.27;2.08;;;;;;;14.65;100.00;101115.97;5047331;28;20476;-61
2023/07/04 03:07:28;;;;;;;5.80;1.98;;;;;;;14.57;100.00;101123.41;5049335;28;20025;-59
2023/07/04 03:09:53;;;;;;;9.90;2.22;;;;;;;14.57;100.00;101123.41;5048949;28;20140;-61
2023/07/04 03:12:19;;;;;;;11.55;2.53;;;;;;;14.57;100.00;101131.34;5048559;28;20044;-60
2023/07/04 03:14:44;;;;;;;9.75;1.83;;;;;;;14.59;100.00;101120.69;5048679;28;20040;-61
2023/07/04 03:17:09;;;;;;;8.90;1.77;;;;;;;14.64;100.00;101122.22;5048253;28;20033;-60
2023/07/04 03:19:35;;;;;;;8.27;2.00;;;;;;;14.61;100.00;101119.72;5064154;28;20025;-60
2023/07/04 03:22:00;;;;;;;8.30;1.88;;;;;;;14.69;100.00;101111.38;5049618;28;20021;-60
2023/07/04 03:24:26;;;;;;;8.60;2.03;;;;;;;14.64;100.00;101116.91;5048444;28;20055;-59
2023/07/04 03:26:52;;;;;;;6.00;1.83;;;;;;;14.68;100.00;101116.75;5048010;28;20123;-60
2023/07/04 03:29:18;;;;;;;8.48;1.92;;;;;;;14.63;100.00;101116.97;5048233;28;20029;-60
2023/07/04 03:31:43;;;;;;;12.48;2.25;;;;;;;14.70;100.00;101114.88;5047728;28;20040;-60
2023/07/04 03:34:08;;;;;;;10.98;2.20;;;;;;;14.69;100.00;101118.47;5046874;28;20028;-60
2023/07/04 03:36:34;;;;;;;11.05;2.35;;;;;;;14.72;100.00;101123.66;5047059;28;20165;-59
2023/07/04 03:39:00;;;;;;;10.48;2.10;;;;;;;14.76;100.00;101128.75;5047632;28;20029;-60
2023/07/04 03:41:25;;;;;;;11.25;2.13;;;;;;;14.78;100.00;101126.03;5048160;28;20029;-61
2023/07/04 03:43:50;;;;;;;7.38;1.95;;;;;;;14.84;100.00;101136.34;5046893;28;20065;-61
2023/07/04 03:46:16;;;;;;;9.48;2.10;;;;;;;14.90;100.00;101136.06;5046784;28;20119;-60
2023/07/04 03:48:42;;;;;;;23.15;2.60;;;;;;;14.89;100.00;101129.03;5047616;28;20361;-60
2023/07/04 03:51:08;;;;;;;11.05;2.42;;;;;;;14.95;100.00;101132.31;5047217;28;20112;-60
2023/07/04 03:53:37;;;;;;;11.50;2.33;;;;;;;14.95;100.00;101127.00;5047321;28;20025;-60
2023/07/04 03:56:05;;;;;;;8.73;2.28;;;;;;;14.94;100.00;101130.59;5046635;28;20029;-58
2023/07/04 03:58:30;;;;;;;11.43;2.07;;;;;;;14.98;100.00;101122.44;5047430;28;20023;-61
2023/07/04 04:00:56;;;;;;;11.02;1.77;;;;;;;15.03;100.00;101131.00;5046525;28;20283;-59
2023/07/04 04:03:22;;;;;;;9.30;2.00;;;;;;;15.01;100.00;101132.03;5046852;28;20492;-60
2023/07/04 04:05:47;;;;;;;7.63;2.47;;;;;;;15.02;100.00;101134.59;5047665;28;20025;-60
2023/07/04 04:08:13;;;;;;;10.95;2.20;;;;;;;15.04;100.00;101137.19;5045230;28;20745;-59
2023/07/04 04:10:38;;;;;;;6.47;1.95;;;;;;;15.08;100.00;101135.25;5047236;28;20086;-60
2023/07/04 04:13:03;;;;;;;9.70;2.33;;;;;;;15.08;100.00;101133.44;5047141;28;20037;-60
2023/07/04 04:15:29;;;;;;;7.50;1.90;;;;;;;15.14;100.00;101138.47;5067339;28;20492;-60
2023/07/04 04:17:55;;;;;;;10.23;2.22;;;;;;;15.18;100.00;101139.19;5046405;28;20037;-60
2023/07/04 04:20:21;;;;;;;10.38;2.03;;;;;;;15.18;100.00;101138.31;5052008;28;20021;-61
2023/07/04 04:22:48;;;;;;;11.23;2.17;;;;;;;15.20;100.00;101141.78;5067615;28;20055;-59
2023/07/04 04:25:14;;;;;;;15.05;2.20;;;;;;;15.20;100.00;101139.13;5061065;28;20028;-60
2023/07/04 04:27:40;;;;;;;10.88;2.53;;;;;;;15.25;100.00;101137.06;5006738;28;1099781;-60
2023/07/04 04:30:08;;;;;;;11.02;2.13;;;;;;;15.29;100.00;101138.63;5047074;28;20120;-59
2023/07/04 04:32:35;;;;;;;8.70;2.20;;;;;;;15.34;100.00;101152.56;5047737;28;20036;-59
2023/07/04 04:35:01;;;;;;;11.23;2.15;;;;;;;15.40;100.00;101143.44;5045989;28;20029;-59
2023/07/04 04:37:27;;;;;;;11.70;2.35;;;;;;;15.48;100.00;101148.38;5047830;28;20025;-61
2023/07/04 04:39:52;;;;;;;9.60;2.15;;;;;;;15.51;100.00;101149.06;5046906;28;20025;-60
2023/07/04 04:42:17;;;;;;;12.50;2.17;;;;;;;15.52;100.00;101150.78;5048765;28;20123;-59
2023/07/04 04:44:43;;;;;;;7.22;2.15;;;;;;;15.55;100.00;101157.75;5048940;28;20047;-59
2023/07/04 04:47:08;;;;;;;11.60;2.70;;;;;;;15.58;100.00;101141.66;5047722;28;20364;-60
2023/07/04 04:49:34;;;;;;;12.77;2.33;;;;;;;15.60;100.00;101136.25;5046870;28;20043;-60
2023/07/04 04:51:59;;;;;;;10.50;2.67;;;;;;;15.63;100.00;101147.56;5047171;28;20036;-58
2023/07/04 04:54:25;;;;;;;6.00;1.67;;;;;;;15.63;100.00;101142.25;5029475;28;20028;-59
2023/07/04 04:56:51;;;;;;;7.43;2.13;;;;;;;15.65;100.00;101142.19;5047490;28;20045;-60
2023/07/04 04:59:16;;;;;;;8.63;2.08;;;;;;;15.70;100.00;101147.28;5047884;28;20112;-59
2023/07/04 05:01:42;;;;;;;17.20;2.38;;;;;;;15.75;100.00;101142.59;5047461;28;20117;-60
2023/07/04 05:04:07;;;;;;;6.43;2.20;;;;;;;15.78;100.00;101139.78;5045622;28;20372;-60
2023/07/04 05:06:33;;;;;;;7.20;2.33;;;;;;;15.78;100.00;101145.94;5047579;28;20029;-59
2023/07/04 05:08:58;;;;;;;10.80;2.60;;;;;;;15.82;100.00;101149.31;5047018;28;20025;-60
2023/07/04 05:11:24;;;;;;;6.80;1.50;;;;;;;15.98;100.00;101144.09;5047016;28;20032;-59
2023/07/04 05:13:50;;;;;;;9.48;1.73;;;;;;;16.09;100.00;101148.84;5046302;28;20675;-58
2023/07/04 05:16:18;;;;;;;10.20;2.47;;;;;;;16.24;100.00;101154.28;5047274;28;20040;-60
2023/07/04 05:18:43;;;;;;;10.43;2.45;;;;;;;16.42;100.00;101145.34;5046406;28;20021;-60
2023/07/04 05:21:15;;;;;;;10.27;2.40;;;;;;;16.55;100.00;101147.31;5046147;28;20017;-60
2023/07/04 05:23:42;;;;;;;12.45;3.00;;;;;;;16.69;100.00;101151.91;5045502;28;20415;-58
2023/07/04 05:26:10;;;;;;;12.13;2.63;;;;;;;16.91;100.00;101145.38;5046622;28;20041;-60
2023/07/04 05:28:36;;;;;;;12.00;2.80;;;;;;;16.98;100.00;101153.91;5046266;28;20668;-59
2023/07/04 05:31:04;;;;;;;13.45;2.30;;;;;;;17.07;100.00;101150.75;5046128;28;20378;-60
2023/07/04 05:33:30;;;;;;;17.88;2.95;;;;;;;17.10;100.00;101150.56;5046636;28;20064;-61
2023/07/04 05:36:23;;;;;;;14.80;2.92;;;;;;;17.10;100.00;101155.88;5046213;28;20075;-60
2023/07/04 05:38:50;;;;;;;9.35;2.28;;;;;;;17.07;100.00;101163.19;5046343;28;20068;-60
2023/07/04 05:41:16;;;;;;;7.97;1.70;;;;;;;17.03;100.00;101167.78;5032416;28;20087;-60
2023/07/04 05:43:42;;;;;;;13.27;2.25;;;;;;;17.01;100.00;101161.72;5049983;28;20413;-60
2023/07/04 05:46:09;;;;;;;9.73;2.40;;;;;;;17.08;100.00;101171.09;5049189;28;20021;-61
2023/07/04 05:48:35;;;;;;;16.83;2.60;;;;;;;17.12;100.00;101167.31;5047714;28;20079;-59
2023/07/04 05:51:03;;;;;;;9.80;1.95;;;;;;;17.22;100.00;101172.13;5049521;28;20380;-60
2023/07/04 05:53:31;;;;;;;11.30;2.33;;;;;;;17.39;100.00;101169.34;5031543;28;20414;-59
2023/07/04 05:56:15;;;;;;;13.60;2.35;;;;;;;17.61;100.00;101168.09;5049158;28;20036;-60
2023/07/04 05:58:42;;;;;;;12.60;2.75;;;;;;;17.77;100.00;101178.72;5048474;28;20079;-61
2023/07/04 06:01:24;;;;;;;7.57;1.80;;;;;;;17.84;100.00;101168.53;5049015;28;20512;-59
2023/07/04 06:03:50;;;;;;;10.35;2.20;;;;;;;17.89;100.00;101169.13;5049879;28;20033;-61
2023/07/04 06:06:24;;;;;;;12.98;2.78;;;;;;;17.96;100.00;101176.72;5060368;28;20017;-62
2023/07/04 06:08:50;;;;;;;17.30;3.00;;;;;;;18.00;100.00;101179.13;5050045;28;20024;-62
2023/07/04 06:11:16;;;;;;;13.98;2.50;;;;;;;18.05;100.00;101176.19;5031540;28;20358;-60
2023/07/04 06:13:42;;;;;;;14.20;2.60;;;;;;;18.19;100.00;101180.72;5049284;28;20041;-61
2023/07/04 06:16:07;;;;;;;12.73;2.65;;;;;;;18.32;100.00;101175.50;5047948;28;20480;-61
2023/07/04 06:18:33;;;;;;;8.50;2.17;;;;;;;18.72;100.00;101179.31;5048652;28;20064;-61
2023/07/04 06:21:09;;;;;;;13.88;2.60;;;;;;;18.78;100.00;101184.25;5049599;28;20017;-60
2023/07/04 06:23:35;;;;;;;7.50;2.63;;;;;;;18.90;100.00;101183.47;5048213;28;20031;-61
2023/07/04 06:26:00;;;;;;;9.50;2.15;;;;;;;19.05;100.00;101199.44;5048598;28;20049;-60
2023/07/04 06:28:26;;;;;;;15.18;3.72;;;;;;;19.09;100.00;101186.78;5049187;28;20029;-60
2023/07/04 06:30:51;;;;;;;10.70;2.30;;;;;;;18.96;100.00;101197.38;5047891;28;20036;-62
2023/07/04 06:33:17;;;;;;;9.00;2.47;;;;;;;18.91;100.00;101200.34;5029297;28;20024;-61
2023/07/04 06:35:42;;;;;;;12.32;2.60;;;;;;;18.88;100.00;101198.72;5054216;28;20309;-63
2023/07/04 06:38:11;;;;;;;12.82;2.67;;;;;;;18.95;100.00;101201.84;5051663;28;20037;-61
2023/07/04 06:40:36;;;;;;;;;;;;;;;18.88;100.00;101208.53;5055637;28;20071;-59
2023/07/04 06:43:03;;;;;;;16.17;2.83;;;;;;;18.85;100.00;101209.59;5046761;28;19979;-60
2023/07/04 06:45:30;;;;;;;10.30;2.65;;;;;;;18.81;100.00;101211.59;5047755;28;20029;-61
2023/07/04 06:47:56;;;;;;;12.88;2.35;;;;;;;18.77;100.00;101209.22;5046905;28;20095;-61
2023/07/04 06:50:21;;;;;;;12.68;2.75;;;;;;;18.73;100.00;101213.91;5048034;28;20055;-61
2023/07/04 06:52:47;;;;;;;11.57;2.92;;;;;;;18.74;100.00;101217.41;5048529;28;20407;-60
2023/07/04 06:55:12;;;;;;;14.77;2.78;;;;;;;18.48;100.00;101226.09;5047088;28;20074;-59
2023/07/04 06:57:37;;;;;;;18.90;2.92;;;;;;;18.33;100.00;101217.22;5047481;28;20021;-61
2023/07/04 07:00:03;;;;;;;12.10;2.22;;;;;;;18.33;100.00;101216.38;5047133;28;20525;-61
2023/07/04 07:02:28;;;;;;;8.95;2.28;;;;;;;18.52;100.00;101227.63;5046958;28;20035;-60
2023/07/04 07:04:54;;;;;;;15.98;2.90;;;;;;;18.73;100.00;101224.59;5048421;28;20025;-60
2023/07/04 07:07:19;;;;;;;14.23;2.47;;;;;;;18.92;100.00;101218.06;5047753;28;20052;-63
2023/07/04 07:09:44;;;;;;;17.35;2.55;;;;;;;18.83;100.00;101232.88;5048693;28;20465;-59
2023/07/04 07:12:11;;;;;;;14.27;2.80;;;;;;;18.79;100.00;101228.69;5043177;28;20432;-60
2023/07/04 07:14:38;;;;;;;13.82;2.78;;;;;;;18.71;100.00;101238.97;5043975;28;20484;-60
2023/07/04 07:17:07;;;;;;;13.02;2.42;;;;;;;18.65;100.00;101233.06;5057249;28;20074;-60
2023/07/04 07:19:32;;;;;;;;;;;;;;;18.64;100.00;101226.03;5057584;28;20025;-61
2023/07/04 07:22:00;;;;;;;10.73;2.58;;;;;;;18.74;100.00;101231.63;5049066;28;20443;-60
2023/07/04 07:24:26;;;;;;;15.68;2.55;;;;;;;18.59;100.00;101235.25;5048791;28;20033;-61
2023/07/04 07:26:52;;;;;;;15.18;3.25;;;;;;;18.64;100.00;101252.72;5057586;28;20095;-61
2023/07/04 07:29:17;;;;;;;12.57;2.30;;;;;;;18.86;100.00;101248.69;5029926;28;20037;-61
2023/07/04 07:31:42;;;;;;;13.00;2.75;;;;;;;19.26;100.00;101236.47;5027739;28;20026;-61
2023/07/04 07:34:08;;;;;;;15.35;2.85;;;;;;;19.17;100.00;101248.56;5007895;28;20036;-62
2023/07/04 07:36:41;;;;;;;10.07;2.45;;;;;;;19.15;97.05;101246.00;5046288;28;20421;-62
2023/07/04 07:39:08;;;;;;;15.32;3.63;;;;;;;19.28;95.48;101250.56;5046005;28;20031;-61
2023/07/04 07:41:36;;;;;;;11.73;2.95;;;;;;;19.28;94.95;101247.88;5048549;28;20021;-60
2023/07/04 07:44:04;;;;;;;11.02;2.45;;;;;;;19.48;93.21;101251.97;5048129;28;20029;-61
2023/07/04 07:46:29;;;;;;;13.68;3.15;;;;;;;19.51;91.23;101241.03;5049163;28;20036;-60
2023/07/04 07:48:55;;;;;;;19.35;2.55;;;;;;;19.58;90.08;101260.22;5047804;28;20029;-61
2023/07/04 07:51:21;;;;;;;9.75;2.25;;;;;;;19.65;88.80;101261.53;5047942;28;20029;-62
2023/07/04 07:53:48;;;;;;;12.52;2.55;;;;;;;19.60;88.68;101242.28;5048818;28;20094;-60
2023/07/04 07:56:17;;;;;;;13.85;2.95;;;;;;;19.70;88.15;101243.38;5048068;28;20455;-60
2023/07/04 07:58:42;;;;;;;15.67;2.97;;;;;;;19.88;87.82;101259.16;5048142;28;20039;-60
2023/07/04 08:01:11;;;;;;;10.32;2.55;;;;;;;19.68;89.53;101257.78;5047396;28;20021;-61
2023/07/04 08:03:36;;;;;;;14.50;2.67;;;;;;;19.67;91.64;101246.25;5047305;28;20039;-61
2023/07/04 08:06:02;;;;;;;15.10;3.05;;;;;;;19.68;89.74;101247.97;5047656;28;20025;-61
2023/07/04 08:08:27;;;;;;;10.77;2.42;;;;;;;19.67;91.67;101251.59;5047651;28;20052;-61
2023/07/04 08:10:52;;;;;;;9.82;2.45;;;;;;;19.76;92.91;101255.47;5047792;28;20009;-61
2023/07/04 08:13:18;;;;;;;13.43;2.65;;;;;;;19.62;92.09;101256.38;5048616;28;20040;-61
2023/07/04 08:15:50;;;;;;;10.38;2.88;;;;;;;19.76;91.32;101251.94;5047665;28;20029;-60
2023/07/04 08:18:16;;;;;;;12.23;2.33;;;;;;;19.78;91.10;101258.88;5047245;28;20021;-60
2023/07/04 08:20:41;;;;;;;10.55;2.67;;;;;;;19.72;91.77;101253.97;5048066;28;20048;-62
2023/07/04 08:23:06;;;;;;;12.40;2.58;;;;;;;19.79;91.58;101265.09;5047591;28;20021;-61
2023/07/04 08:25:38;;;;;;;14.10;2.30;;;;;;;20.01;89.25;101259.19;5047908;28;20368;-61
2023/07/04 08:28:03;;;;;;;16.35;2.72;;;;;;;20.40;88.92;101272.63;5047483;28;20048;-63
2023/07/04 08:30:28;;;;;;;7.57;1.95;;;;;;;20.34;88.22;101281.06;5048203;28;20029;-62
2023/07/04 08:32:54;;;;;;;9.77;2.28;;;;;;;20.10;89.23;101268.41;5046820;28;20033;-63
2023/07/04 08:35:19;;;;;;;11.18;2.15;;;;;;;20.20;87.12;101287.38;5047619;28;20048;-62
2023/07/04 08:37:45;;;;;;;16.15;2.72;;;;;;;20.44;83.81;101273.28;5029172;28;20021;-62
2023/07/04 08:40:11;;;;;;;10.57;2.30;;;;;;;20.48;86.04;101279.25;5046217;28;20025;-62
2023/07/04 08:42:39;;;;;;;10.80;2.30;;;;;;;20.74;86.42;101265.88;5046603;28;20033;-62
2023/07/04 08:45:06;;;;;;;9.88;2.50;;;;;;;21.06;86.40;101266.31;5045858;28;20452;-62
2023/07/04 08:47:32;;;;;;;14.77;2.55;;;;;;;21.28;83.92;101274.63;5026463;28;20116;-62
2023/07/04 08:50:02;;;;;;;12.38;2.83;;;;;;;21.36;81.87;101277.56;5027657;28;20112;-60
2023/07/04 08:52:32;;;;;;;11.02;2.40;;;;;;;21.23;83.41;101266.03;5045446;28;20040;-62
2023/07/04 08:54:58;;;;;;;10.98;2.63;;;;;;;21.61;82.38;101269.56;5025707;28;20021;-60
2023/07/04 08:57:52;;;;;;;13.02;3.03;;;;;;;21.62;80.08;101277.50;5028049;28;20055;-60
2023/07/04 09:00:38;;;;;;;12.15;2.35;;;;;;;21.66;80.39;101281.66;5026200;28;20538;-59
2023/07/04 09:03:22;;;;;;;11.13;2.55;;;;;;;21.62;81.02;101276.63;5043443;28;20044;-61
2023/07/04 09:05:59;;;;;;;13.43;2.75;;;;;;;21.78;79.13;101276.34;5047101;28;20033;-61
2023/07/04 09:08:39;;;;;;;12.25;2.53;;;;;;;21.75;79.93;101279.22;5027297;28;20045;-62
2023/07/04 09:11:10;;;;;;;12.63;2.47;;;;;;;21.71;78.49;101276.78;5024847;28;20036;-61
2023/07/04 09:13:43;;;;;;;11.13;2.50;;;;;;;21.60;76.94;101287.47;5044751;28;20413;-61
2023/07/04 09:16:11;;;;;;;5.55;2.00;;;;;;;21.65;77.36;101288.00;5046117;28;20532;-64
2023/07/04 09:18:43;;;;;;;12.30;2.45;;;;;;;21.61;74.10;101305.25;5026355;28;20159;-63
2023/07/04 09:21:14;;;;;;;14.68;2.30;;;;;;;21.57;69.73;101293.03;5046420;28;20021;-63
2023/07/04 09:23:40;;;;;;;12.52;2.78;;;;;;;21.61;68.39;101301.72;5044644;28;20377;-59
2023/07/04 09:26:10;;;;;;;8.40;2.15;;;;;;;21.58;66.89;101298.28;5045811;28;20509;-59
2023/07/04 09:28:41;;;;;;;5.80;2.30;;;;;;;21.52;66.38;101305.94;5029172;28;20071;-63
2023/07/04 09:31:13;;;;;;;10.00;3.05;;;;;;;21.74;66.05;101305.22;5045856;28;20032;-61
2023/07/04 09:33:39;;;;;;;7.32;2.28;;;;;;;21.78;67.54;101305.84;5060154;28;20411;-62
2023/07/04 09:36:06;;;;;;;9.63;2.10;;;;;;;21.89;68.10;101318.47;5026775;28;20036;-62
2023/07/04 09:38:53;;;;;;;9.60;2.40;;;;;;;21.85;67.79;101325.88;5046676;28;20118;-64
2023/07/04 09:41:20;;;;;;;10.55;3.00;;;;;;;21.84;66.89;101308.09;5045691;28;20040;-62
2023/07/04 09:43:45;;;;;;;8.63;2.10;;;;;;;21.94;68.25;101302.88;5045508;28;20035;-63
2023/07/04 09:46:24;;;;;;;9.63;2.70;;;;;;;21.65;70.37;101306.75;5031137;28;20025;-63
2023/07/04 09:48:50;;;;;;;;;;;;;;;21.44;70.53;101311.88;5062405;28;20445;-62
2023/07/04 09:51:20;;;;;;;14.15;2.97;;;;;;;21.05;73.09;101326.22;5046452;28;19928;-62
2023/07/04 09:53:46;;;;;;;10.40;2.47;;;;;;;21.08;75.34;101317.09;5029114;28;20029;-64
2023/07/04 09:56:23;;;;;;;13.52;2.60;;;;;;;21.01;74.32;101326.53;5043838;28;20033;-60
2023/07/04 09:59:11;;;;;;;9.90;2.38;;;;;;;21.03;74.88;101336.16;5046219;28;20021;-63
2023/07/04 10:01:41;;;;;;;10.70;2.22;;;;;;;20.94;73.68;101337.69;5046878;28;20025;-61
2023/07/04 10:04:08;;;;;;;14.82;2.70;;;;;;;21.04;70.84;101337.03;5044134;28;20024;-61
2023/07/04 10:06:36;;;;;;;10.25;2.20;;;;;;;21.38;71.57;101339.97;5027896;28;20115;-61
2023/07/04 10:09:06;;;;;;;9.73;2.70;;;;;;;21.67;70.22;101328.09;5043165;28;20037;-62
2023/07/04 10:11:36;;;;;;;11.20;2.13;;;;;;;22.03;68.10;101339.75;5027947;28;20041;-62
2023/07/04 10:14:07;;;;;;;12.23;2.85;;;;;;;22.42;66.19;101334.16;5042909;28;20025;-59
2023/07/04 10:16:33;;;;;;;10.63;2.35;;;;;;;22.43;65.11;101335.84;5045503;28;20029;-62
2023/07/04 10:19:10;;;;;;;12.77;2.53;;;;;;;22.32;64.96;101346.56;5044912;28;20032;-63
2023/07/04 10:21:45;;;;;;;9.50;2.20;;;;;;;22.41;64.43;101348.56;5041854;28;20163;-62
2023/07/04 10:24:17;;;;;;;14.90;2.50;;;;;;;22.15;64.59;101346.03;5048815;28;20086;-62
2023/07/04 10:26:44;;;;;;;16.58;2.80;;;;;;;21.94;65.97;101343.97;5048912;28;20045;-62
2023/07/04 10:29:10;;;;;;;11.60;2.45;;;;;;;21.99;66.73;101337.41;5056895;28;20501;-61
2023/07/04 10:31:36;;;;;;;15.82;2.42;;;;;;;22.13;65.17;101341.75;5030321;28;20037;-64
2023/07/04 10:34:04;;;;;;;7.70;2.28;;;;;;;22.07;66.79;101357.31;5038786;28;20021;-63
2023/07/04 10:36:32;;;;;;;10.43;2.42;;;;;;;22.02;62.14;101345.22;5046103;28;20097;-63
2023/07/04 10:39:00;;;;;;;10.80;2.67;;;;;;;22.30;63.59;101335.09;5061076;28;20039;-63
2023/07/04 10:41:31;;;;;;;6.90;2.10;;;;;;;22.36;62.37;101342.66;5047398;28;20032;-61
2023/07/04 10:44:00;;;;;;;6.30;1.80;;;;;;;22.68;61.67;101349.25;5049534;28;20017;-60
2023/07/04 10:46:28;;;;;;;7.68;2.08;;;;;;;22.67;61.88;101334.97;5030884;28;20033;-63
2023/07/04 10:49:02;;;;;;;12.30;2.70;;;;;;;22.63;61.12;101335.34;5030914;28;20391;-62
2023/07/04 10:51:32;;;;;;;8.50;2.00;;;;;;;22.66;59.43;101335.09;5048256;28;20360;-62
2023/07/04 10:53:58;;;;;;;7.43;1.92;;;;;;;22.91;57.18;101342.06;5030904;28;20028;-62
2023/07/04 10:56:27;;;;;;;5.50;1.83;;;;;;;22.76;57.92;101343.28;5032616;28;20033;-62
2023/07/04 10:58:56;;;;;;;10.45;2.33;;;;;;;22.94;59.66;101366.00;5056619;28;20021;-64
2023/07/04 11:01:31;;;;;;;6.90;1.98;;;;;;;22.85;58.09;101340.72;5046490;28;20396;-63
2023/07/04 11:04:01;;;;;;;8.18;1.90;;;;;;;22.94;56.04;101347.19;5052494;28;20101;-62
2023/07/04 11:06:58;;;;;;;7.72;2.00;;;;;;;22.97;58.59;101346.13;5034939;28;20174;-62
2023/07/04 11:09:24;;;;;;;9.15;2.08;;;;;;;23.14;57.20;101342.09;5047188;28;20316;-61
2023/07/04 11:11:50;;;;;;;6.30;1.60;;;;;;;22.82;57.14;101351.72;5037600;28;20103;-63
2023/07/04 11:14:26;;;;;;;5.85;2.05;;;;;;;22.85;58.31;101361.38;5039169;28;20450;-61
2023/07/04 11:16:54;;;;;;;9.55;2.05;;;;;;;23.10;58.07;101346.00;5033499;28;20552;-62
2023/07/04 11:19:28;;;;;;;8.57;2.08;;;;;;;23.25;56.50;101362.72;5055789;28;20021;-62